Severna Park, Maryland
Current Conditions -  °F | °C
As of 7:15 AM on Monday 24 Nov 2014 (Local Time) from KNAK Reporting Station
Haze Haze  
Wind Chill: 56°   Ceiling: 500
Heat Index: 56°   Visibility: 1mi
Dew Point: 55°   Wind: 13mph
Humidity: 97%   Direction: 180°S
Pressure: 29.68"   Gusts: NA
Location:  39.07°N, 76.54°W
Report Text: KNAK 241215Z AUTO 18011KT 1SM BR VV005 13/13 A2968 RMK AO2 T01330128
Loading
Personal Weather Stations






























Interactive Weather Map New forecast layout! Learn more

10-Day Weather Forecast

Advertisements
Track Severe Weather on mobile